createdAt,value
2023-03-10T00:01:41.205Z,94520.73
2023-03-10T00:04:09.979Z,94520.14
2023-03-10T00:06:37.967Z,94524.05
2023-03-10T00:09:04.920Z,94523.12
2023-03-10T00:11:32.025Z,94524.52
2023-03-10T00:13:59.325Z,94527.20
2023-03-10T00:16:28.734Z,94525.14
2023-03-10T00:18:56.093Z,94518.83
2023-03-10T00:21:25.503Z,94518.68
2023-03-10T00:23:52.754Z,94516.73
2023-03-10T00:26:20.935Z,94521.85
2023-03-10T00:28:48.788Z,94518.97
2023-03-10T00:31:18.557Z,94519.65
2023-03-10T00:33:45.752Z,94518.38
2023-03-10T00:36:16.304Z,94524.45
2023-03-10T00:38:44.912Z,94522.53
2023-03-10T00:41:14.637Z,94519.58
2023-03-10T00:43:41.361Z,94516.78
2023-03-10T00:46:08.823Z,94521.60
2023-03-10T00:48:36.497Z,94518.31
2023-03-10T00:51:04.931Z,94513.14
2023-03-10T00:53:37.605Z,94516.23
2023-03-10T00:56:17.060Z,94512.64
2023-03-10T00:58:45.678Z,94514.03
2023-03-10T01:01:16.772Z,94508.96
2023-03-10T01:03:44.357Z,94508.38
2023-03-10T01:06:11.643Z,94504.44
2023-03-10T01:08:38.550Z,94502.38
2023-03-10T01:11:06.247Z,94498.79
2023-03-10T01:13:33.880Z,94492.81
2023-03-10T01:16:00.857Z,94493.13
2023-03-10T01:18:27.772Z,94498.80
2023-03-10T01:20:54.505Z,94499.95
2023-03-10T01:23:24.238Z,94499.20
2023-03-10T01:25:51.581Z,94496.33
2023-03-10T01:28:20.009Z,94495.21
2023-03-10T01:30:48.145Z,94495.41
2023-03-10T01:33:17.235Z,94492.92
2023-03-10T01:35:44.504Z,94492.48
2023-03-10T01:38:11.848Z,94490.76
2023-03-10T01:40:39.340Z,94493.19
2023-03-10T01:43:19.771Z,94490.55
2023-03-10T01:45:51.560Z,94489.30
2023-03-10T01:48:21.546Z,94494.01
2023-03-10T01:50:53.397Z,94497.85
2023-03-10T01:53:22.122Z,94501.84
2023-03-10T01:55:56.624Z,94502.45
2023-03-10T01:58:29.301Z,94502.91
2023-03-10T02:00:56.219Z,94505.42
2023-03-10T02:03:28.883Z,94506.41
2023-03-10T02:06:02.056Z,94500.48
2023-03-10T02:08:34.589Z,94502.59
2023-03-10T02:11:01.889Z,94505.33
2023-03-10T02:13:28.987Z,94499.36
2023-03-10T02:15:56.086Z,94501.11
2023-03-10T02:18:23.204Z,94508.46
2023-03-10T02:21:24.867Z,94507.34
2023-03-10T02:24:35.655Z,94509.33
2023-03-10T02:27:11.955Z,94505.15
2023-03-10T02:30:06.407Z,94505.83
2023-03-10T02:32:39.156Z,94501.98
2023-03-10T02:35:07.000Z,94498.77
2023-03-10T02:37:36.775Z,94493.16
2023-03-10T02:40:23.273Z,94492.19
2023-03-10T02:42:51.592Z,94490.86
2023-03-10T02:45:18.415Z,94488.36
2023-03-10T02:47:45.136Z,94486.31
2023-03-10T02:50:15.463Z,94483.64
2023-03-10T02:52:52.830Z,94483.79
2023-03-10T02:55:19.908Z,94481.52
2023-03-10T02:57:48.591Z,94473.60
2023-03-10T03:00:16.880Z,94472.80
2023-03-10T03:02:43.707Z,94472.42
2023-03-10T03:05:10.787Z,94468.05
2023-03-10T03:07:37.708Z,94472.20
2023-03-10T03:10:06.486Z,94464.03
2023-03-10T03:12:33.248Z,94462.64
2023-03-10T03:15:00.185Z,94463.13
2023-03-10T03:17:28.265Z,94461.43
2023-03-10T03:19:55.106Z,94459.59
2023-03-10T03:22:22.494Z,94459.55
2023-03-10T03:24:49.810Z,94457.94
2023-03-10T03:27:16.764Z,94450.59
2023-03-10T03:29:45.042Z,94454.73
2023-03-10T03:32:12.826Z,94451.95
2023-03-10T03:34:39.900Z,94445.32
2023-03-10T03:37:07.206Z,94447.66
2023-03-10T03:39:37.171Z,94451.08
2023-03-10T03:42:06.644Z,94442.56
2023-03-10T03:44:42.650Z,94444.27
2023-03-10T03:47:10.361Z,94445.39
2023-03-10T03:49:38.541Z,94442.40
2023-03-10T03:52:07.028Z,94439.35
2023-03-10T03:54:34.111Z,94436.05
2023-03-10T03:57:01.625Z,94433.48
2023-03-10T03:59:29.192Z,94431.85
2023-03-10T04:01:56.671Z,94425.19
2023-03-10T04:04:24.215Z,94424.14
2023-03-10T04:06:51.791Z,94425.92
2023-03-10T04:09:18.920Z,94424.98
2023-03-10T04:11:46.119Z,94419.27
2023-03-10T04:14:13.123Z,94417.42
2023-03-10T04:16:40.071Z,94415.66
2023-03-10T04:19:07.446Z,94412.30
2023-03-10T04:21:35.404Z,94412.33
2023-03-10T04:24:03.693Z,94412.40
2023-03-10T04:26:31.962Z,94409.16
2023-03-10T04:28:59.625Z,94408.05
2023-03-10T04:31:26.810Z,94401.42
2023-03-10T04:33:54.136Z,94398.71
2023-03-10T04:36:21.734Z,94398.80
2023-03-10T04:38:51.518Z,94396.59
2023-03-10T04:41:18.970Z,94398.13
2023-03-10T04:43:48.025Z,94397.48
2023-03-10T04:46:16.030Z,94395.05
2023-03-10T04:48:43.833Z,94392.94
2023-03-10T04:51:12.385Z,94392.70
2023-03-10T04:53:44.835Z,94396.52
2023-03-10T04:56:12.114Z,94391.70
2023-03-10T04:58:40.403Z,94392.70
2023-03-10T05:01:10.120Z,94396.49
2023-03-10T05:03:39.368Z,94391.81
2023-03-10T05:06:17.526Z,94390.34
2023-03-10T05:08:48.052Z,94395.05
2023-03-10T05:11:15.745Z,94397.03
2023-03-10T05:13:42.764Z,94399.48
2023-03-10T05:16:15.767Z,94403.52
2023-03-10T05:18:45.400Z,94403.13
2023-03-10T05:21:13.615Z,94404.17
2023-03-10T05:23:41.404Z,94402.91
2023-03-10T05:26:10.621Z,94402.48
2023-03-10T05:28:38.069Z,94399.45
2023-03-10T05:31:10.623Z,94401.88
2023-03-10T05:33:38.509Z,94398.12
2023-03-10T05:36:08.544Z,94400.33
2023-03-10T05:38:36.692Z,94401.02
2023-03-10T05:41:09.301Z,94399.14
2023-03-10T05:43:38.343Z,94403.45
2023-03-10T05:46:06.822Z,94401.83
2023-03-10T05:48:36.069Z,94406.92
2023-03-10T05:51:06.804Z,94412.86
2023-03-10T05:53:35.743Z,94409.29
2023-03-10T05:56:12.277Z,94406.52
2023-03-10T05:58:39.956Z,94403.18
2023-03-10T06:01:08.059Z,94400.96
2023-03-10T06:03:36.930Z,94398.86
2023-03-10T06:06:09.099Z,94398.08
2023-03-10T06:08:39.593Z,94396.55
2023-03-10T06:11:06.673Z,94395.52
2023-03-10T06:13:34.408Z,94396.42
2023-03-10T06:16:04.396Z,94401.02
2023-03-10T06:18:31.788Z,94400.68
2023-03-10T06:20:59.146Z,94397.07
2023-03-10T06:23:26.634Z,94396.98
2023-03-10T06:26:05.444Z,94391.30
2023-03-10T06:28:36.065Z,94388.83
2023-03-10T06:31:07.325Z,94384.36
2023-03-10T06:33:34.735Z,94381.86
2023-03-10T06:36:02.092Z,94380.09
2023-03-10T06:38:30.212Z,94376.72
2023-03-10T06:40:58.183Z,94375.02
2023-03-10T06:43:25.431Z,94375.48
2023-03-10T06:45:52.566Z,94372.18
2023-03-10T06:48:19.577Z,94374.77
2023-03-10T06:50:48.582Z,94371.29
2023-03-10T06:53:17.730Z,94371.58
2023-03-10T06:55:45.599Z,94372.52
2023-03-10T06:58:12.336Z,94369.95
2023-03-10T07:00:39.381Z,94369.13
2023-03-10T07:03:06.330Z,94371.83
2023-03-10T07:05:33.888Z,94373.14
2023-03-10T07:08:00.843Z,94372.02
2023-03-10T07:10:27.893Z,94372.91
2023-03-10T07:12:58.344Z,94364.66
2023-03-10T07:15:26.281Z,94366.67
2023-03-10T07:17:55.722Z,94362.20
2023-03-10T07:20:38.712Z,94358.59
2023-03-10T07:23:16.188Z,94353.36
2023-03-10T07:25:43.223Z,94352.52
2023-03-10T07:28:10.166Z,94346.00
2023-03-10T07:30:38.107Z,94338.74
2023-03-10T07:33:05.322Z,94336.80
2023-03-10T07:35:33.551Z,94333.73
2023-03-10T07:38:02.026Z,94331.01
2023-03-10T07:40:29.551Z,94326.33
2023-03-10T07:42:56.603Z,94321.42
2023-03-10T07:45:27.041Z,94316.95
2023-03-10T07:47:54.187Z,94314.27
2023-03-10T07:50:21.789Z,94313.30
2023-03-10T07:52:49.628Z,94311.64
2023-03-10T07:55:17.218Z,94308.16
2023-03-10T07:57:44.340Z,94302.58
2023-03-10T08:00:15.083Z,94298.20
2023-03-10T08:02:42.367Z,94295.61
2023-03-10T08:05:11.662Z,94296.33
2023-03-10T08:07:39.050Z,94294.59
2023-03-10T08:10:07.288Z,94295.39
2023-03-10T08:12:34.636Z,94293.73
2023-03-10T08:15:01.557Z,94297.58
2023-03-10T08:17:32.999Z,94294.86
2023-03-10T08:20:00.697Z,94292.47
2023-03-10T08:22:27.828Z,94291.57
2023-03-10T08:24:55.621Z,94287.70
2023-03-10T08:27:22.866Z,94284.46
2023-03-10T08:29:49.996Z,94281.23
2023-03-10T08:32:17.503Z,94280.84
2023-03-10T08:34:45.444Z,94277.73
2023-03-10T08:37:12.278Z,94277.26
2023-03-10T08:39:39.455Z,94275.15
2023-03-10T08:42:09.251Z,94276.12
2023-03-10T08:44:36.592Z,94272.23
2023-03-10T08:47:03.641Z,94268.60
2023-03-10T08:49:31.012Z,94271.19
2023-03-10T08:51:59.516Z,94265.60
2023-03-10T08:54:27.072Z,94262.82
2023-03-10T08:56:54.501Z,94261.08
2023-03-10T08:59:21.558Z,94261.20
2023-03-10T09:01:49.606Z,94257.17
2023-03-10T09:04:16.620Z,94261.33
2023-03-10T09:06:44.178Z,94261.97
2023-03-10T09:09:12.109Z,94264.92
2023-03-10T09:11:40.494Z,94261.95
2023-03-10T09:14:09.336Z,94260.73
2023-03-10T09:16:38.965Z,94250.29
2023-03-10T09:19:06.057Z,94246.39
2023-03-10T09:21:33.928Z,94242.73
2023-03-10T09:24:02.403Z,94239.47
2023-03-10T09:26:30.052Z,94238.69
2023-03-10T09:28:57.324Z,94238.52
2023-03-10T09:31:32.052Z,94235.10
2023-03-10T09:34:01.338Z,94237.48
2023-03-10T09:36:29.357Z,94233.15
2023-03-10T09:38:57.994Z,94235.11
2023-03-10T09:41:38.477Z,94233.63
2023-03-10T09:44:37.415Z,94232.05
2023-03-10T09:47:22.410Z,94230.53
2023-03-10T09:50:14.077Z,94228.36
2023-03-10T09:53:01.543Z,94230.26
2023-03-10T09:55:47.848Z,94224.98
2023-03-10T09:58:49.557Z,94220.70
2023-03-10T10:01:23.466Z,94221.10
2023-03-10T10:04:22.102Z,94219.92
2023-03-10T10:06:50.602Z,94212.02
2023-03-10T10:09:41.657Z,94211.52
2023-03-10T10:12:14.529Z,94203.27
2023-03-10T10:14:55.065Z,94189.27
2023-03-10T10:18:05.605Z,94178.05
2023-03-10T10:20:41.821Z,94174.84
2023-03-10T10:23:36.628Z,94172.55
2023-03-10T10:26:16.023Z,94173.31
2023-03-10T10:28:48.260Z,94169.15
2023-03-10T10:31:23.123Z,94172.98
2023-03-10T10:34:05.998Z,94171.02
2023-03-10T10:36:35.712Z,94167.11
2023-03-10T10:39:19.656Z,94161.00
2023-03-10T10:41:46.393Z,94151.36
2023-03-10T10:44:16.825Z,94150.34
2023-03-10T10:46:56.248Z,94147.55
2023-03-10T10:49:25.399Z,94147.25
2023-03-10T10:52:01.765Z,94146.73
2023-03-10T10:54:37.486Z,94143.00
2023-03-10T10:57:17.837Z,94139.16
2023-03-10T10:59:44.588Z,94132.47
2023-03-10T11:02:45.066Z,94130.55
2023-03-10T11:05:12.196Z,94118.77
2023-03-10T11:07:39.333Z,94114.36
2023-03-10T11:10:15.968Z,94116.17
2023-03-10T11:12:43.337Z,94106.89
2023-03-10T11:15:29.587Z,94103.03
2023-03-10T11:18:12.177Z,94096.65
2023-03-10T11:21:07.692Z,94090.41
2023-03-10T11:24:15.705Z,94083.65
2023-03-10T11:26:54.422Z,94074.29
2023-03-10T11:29:43.422Z,94072.17
2023-03-10T11:32:25.618Z,94072.64
2023-03-10T11:34:55.506Z,94064.39
2023-03-10T11:37:44.980Z,94061.06
2023-03-10T11:40:25.036Z,94055.22
2023-03-10T11:43:12.101Z,94054.39
2023-03-10T11:45:39.216Z,94047.70
2023-03-10T11:48:30.729Z,94048.29
2023-03-10T11:51:01.114Z,94045.42
2023-03-10T11:53:33.045Z,94041.02
2023-03-10T11:56:02.063Z,94036.20
2023-03-10T11:58:34.784Z,94032.96
2023-03-10T12:01:02.175Z,94027.29
2023-03-10T12:04:17.264Z,94021.64
2023-03-10T12:07:03.164Z,94019.54
2023-03-10T12:09:41.708Z,94015.54
2023-03-10T12:12:15.072Z,94015.86
2023-03-10T12:14:44.567Z,94016.34
2023-03-10T12:17:14.562Z,94011.52
2023-03-10T12:20:12.330Z,94008.94
2023-03-10T12:22:43.165Z,94011.41
2023-03-10T12:25:37.162Z,94015.77
2023-03-10T12:28:16.478Z,94013.69
2023-03-10T12:30:50.455Z,94006.02
2023-03-10T12:33:42.023Z,94003.08
2023-03-10T12:36:14.112Z,93998.96
2023-03-10T12:38:54.405Z,93995.34
2023-03-10T12:41:30.206Z,93993.38
2023-03-10T12:44:00.152Z,93989.84
2023-03-10T12:46:27.087Z,93986.84
2023-03-10T12:49:10.915Z,93988.16
2023-03-10T12:51:42.715Z,93984.90
2023-03-10T12:54:20.215Z,93984.87
2023-03-10T12:56:59.022Z,93987.29
2023-03-10T12:59:53.042Z,93977.77
2023-03-10T13:02:23.215Z,93976.64
2023-03-10T13:04:52.914Z,93974.77
2023-03-10T13:07:19.766Z,93973.85
2023-03-10T13:09:48.249Z,93970.61
2023-03-10T13:12:30.429Z,93967.73
2023-03-10T13:15:00.701Z,93965.69
2023-03-10T13:17:32.277Z,93961.94
2023-03-10T13:20:05.239Z,93958.75
2023-03-10T13:22:33.304Z,93951.23
2023-03-10T13:25:14.542Z,93951.01
2023-03-10T13:27:41.418Z,93949.91
2023-03-10T13:30:27.277Z,93950.00
2023-03-10T13:33:00.742Z,93946.86
2023-03-10T13:35:36.456Z,93944.41
2023-03-10T13:38:26.483Z,93938.20
2023-03-10T13:40:56.169Z,93939.48
2023-03-10T13:43:22.736Z,93937.77
2023-03-10T13:45:57.409Z,93932.56
2023-03-10T13:48:26.727Z,93928.75
2023-03-10T13:51:06.687Z,93927.56
2023-03-10T13:53:33.653Z,93927.31
2023-03-10T13:56:14.318Z,93922.33
2023-03-10T13:58:42.683Z,93918.80
2023-03-10T14:01:16.945Z,93918.07
2023-03-10T14:03:59.277Z,93917.02
2023-03-10T14:06:28.310Z,93912.34
2023-03-10T14:08:55.869Z,93910.77
2023-03-10T14:11:31.933Z,93906.61
2023-03-10T14:14:00.323Z,93908.08
2023-03-10T14:16:58.937Z,93904.89
2023-03-10T14:19:39.026Z,93901.64
2023-03-10T14:22:40.951Z,93897.58
2023-03-10T14:25:17.032Z,93895.13
2023-03-10T14:27:46.821Z,93893.20
2023-03-10T14:30:35.910Z,93888.92
2023-03-10T14:33:11.631Z,93881.04
2023-03-10T14:35:39.246Z,93879.35
2023-03-10T14:38:06.332Z,93875.91
2023-03-10T14:40:46.280Z,93870.30
2023-03-10T14:43:35.141Z,93864.04
2023-03-10T14:46:02.209Z,93855.15
2023-03-10T14:48:35.012Z,93853.55
2023-03-10T14:51:02.558Z,93845.31
2023-03-10T14:53:31.323Z,93846.40
2023-03-10T14:56:01.279Z,93844.65
2023-03-10T14:58:32.575Z,93843.46
2023-03-10T15:01:00.144Z,93842.56
2023-03-10T15:03:27.514Z,93840.45
2023-03-10T15:05:54.306Z,93837.85
2023-03-10T15:08:21.215Z,93834.36
2023-03-10T15:10:50.599Z,93831.69
2023-03-10T15:13:23.399Z,93827.42
2023-03-10T15:15:51.197Z,93824.90
2023-03-10T15:18:21.484Z,93821.76
2023-03-10T15:20:48.766Z,93820.80
2023-03-10T15:23:19.854Z,93819.21
2023-03-10T15:25:47.865Z,93815.08
2023-03-10T15:28:15.144Z,93813.83
2023-03-10T15:30:42.165Z,93808.83
2023-03-10T15:33:10.053Z,93808.59
2023-03-10T15:35:38.621Z,93803.44
2023-03-10T15:38:06.218Z,93801.27
2023-03-10T15:40:34.969Z,93794.35
2023-03-10T15:43:02.326Z,93792.57
2023-03-10T15:45:31.026Z,93792.80
2023-03-10T15:47:58.360Z,93787.23
2023-03-10T15:50:26.067Z,93782.25
2023-03-10T15:52:55.745Z,93779.02
2023-03-10T15:55:23.357Z,93776.89
2023-03-10T15:57:50.870Z,93774.88
2023-03-10T16:00:20.063Z,93771.17
2023-03-10T16:02:48.201Z,93769.60
2023-03-10T16:05:16.107Z,93760.47
2023-03-10T16:07:43.304Z,93764.64
2023-03-10T16:10:13.541Z,93763.67
2023-03-10T16:12:41.143Z,93764.56
2023-03-10T16:15:09.017Z,93760.10
2023-03-10T16:17:36.184Z,93758.75
2023-03-10T16:20:06.661Z,93757.41
2023-03-10T16:22:33.530Z,93758.00
2023-03-10T16:25:00.590Z,93752.54
2023-03-10T16:27:27.536Z,93755.55
2023-03-10T16:29:54.281Z,93751.66
2023-03-10T16:32:21.012Z,93749.98
2023-03-10T16:34:47.861Z,93751.55
2023-03-10T16:37:14.634Z,93751.80
2023-03-10T16:39:42.985Z,93751.91
2023-03-10T16:42:09.883Z,93753.58
2023-03-10T16:44:36.893Z,93754.41
2023-03-10T16:47:03.832Z,93760.75
2023-03-10T16:49:31.811Z,93761.35
2023-03-10T16:51:59.164Z,93757.13
2023-03-10T16:54:26.112Z,93754.85
2023-03-10T16:56:56.344Z,93757.05
2023-03-10T16:59:24.691Z,93760.25
2023-03-10T17:01:51.860Z,93762.42
2023-03-10T17:04:19.927Z,93764.86
2023-03-10T17:06:47.660Z,93759.55
2023-03-10T17:09:16.589Z,93756.81
2023-03-10T17:11:54.448Z,93755.23
2023-03-10T17:14:22.787Z,93749.91
2023-03-10T17:16:50.487Z,93746.98
2023-03-10T17:19:20.346Z,93743.64
2023-03-10T17:21:50.804Z,93737.70
2023-03-10T17:24:18.958Z,93740.38
2023-03-10T17:26:46.922Z,93736.48
2023-03-10T17:29:14.378Z,93734.02
2023-03-10T17:31:43.399Z,93730.61
2023-03-10T17:34:13.732Z,93725.59
2023-03-10T17:36:40.754Z,93725.20
2023-03-10T17:39:08.038Z,93719.38
2023-03-10T17:41:35.895Z,93723.10
2023-03-10T17:44:05.876Z,93719.27
2023-03-10T17:46:32.906Z,93720.06
2023-03-10T17:49:00.341Z,93713.36
2023-03-10T17:51:30.087Z,93710.20
2023-03-10T17:54:00.566Z,93712.48
2023-03-10T17:56:27.912Z,93711.30
2023-03-10T17:58:57.026Z,93713.15
2023-03-10T18:01:28.963Z,93708.70
2023-03-10T18:03:57.483Z,93708.81
2023-03-10T18:06:27.302Z,93706.65
2023-03-10T18:08:56.233Z,93703.73
2023-03-10T18:11:24.629Z,93699.09
2023-03-10T18:13:52.513Z,93693.75
2023-03-10T18:16:24.380Z,93690.84
2023-03-10T18:18:52.141Z,93686.84
2023-03-10T18:21:19.966Z,93680.89
2023-03-10T18:23:48.209Z,93678.08
2023-03-10T18:26:22.002Z,93671.88
2023-03-10T18:28:48.963Z,93673.04
2023-03-10T18:31:24.988Z,93665.56
2023-03-10T18:33:52.153Z,93661.40
2023-03-10T18:36:20.775Z,93656.46
2023-03-10T18:38:48.262Z,93649.39
2023-03-10T18:41:18.889Z,93647.30
2023-03-10T18:43:45.881Z,93647.49
2023-03-10T18:46:13.179Z,93648.21
2023-03-10T18:48:40.527Z,93647.22
2023-03-10T18:51:07.539Z,93646.25
2023-03-10T18:53:34.427Z,93640.02
2023-03-10T18:56:01.260Z,93636.55
2023-03-10T18:58:29.212Z,93636.85
2023-03-10T19:00:56.466Z,93635.55
2023-03-10T19:03:23.401Z,93640.59
2023-03-10T19:05:54.244Z,93646.84
2023-03-10T19:08:26.520Z,93644.86
2023-03-10T19:10:58.064Z,93642.74
2023-03-10T19:13:27.161Z,93640.30
2023-03-10T19:15:54.164Z,93639.16
2023-03-10T19:18:21.980Z,93636.05
2023-03-10T19:20:50.462Z,93629.98
2023-03-10T19:23:17.431Z,93629.52
2023-03-10T19:25:44.367Z,93628.58
2023-03-10T19:28:11.201Z,93624.30
2023-03-10T19:30:42.154Z,93622.46
2023-03-10T19:33:10.416Z,93613.87
2023-03-10T19:35:37.785Z,93619.12
2023-03-10T19:38:05.235Z,93621.35
2023-03-10T19:40:32.792Z,93619.25
2023-03-10T19:42:59.741Z,93621.66
2023-03-10T19:45:27.199Z,93619.21
2023-03-10T19:47:57.429Z,93616.51
2023-03-10T19:50:24.913Z,93613.20
2023-03-10T19:52:52.240Z,93614.62
2023-03-10T19:55:22.594Z,93612.95
2023-03-10T19:57:51.454Z,93614.75
2023-03-10T20:00:24.173Z,93615.31
2023-03-10T20:02:52.656Z,93616.17
2023-03-10T20:05:20.509Z,93619.64
2023-03-10T20:07:48.166Z,93618.11
2023-03-10T20:10:17.181Z,93616.70
2023-03-10T20:12:46.648Z,93608.67
2023-03-10T20:15:14.556Z,93600.92
2023-03-10T20:17:41.358Z,93587.70
2023-03-10T20:20:09.760Z,93572.89
2023-03-10T20:22:42.269Z,93568.30
2023-03-10T20:25:11.327Z,93568.26
2023-03-10T20:27:38.578Z,93574.57
2023-03-10T20:30:20.724Z,93574.58
2023-03-10T20:32:47.771Z,93579.41
2023-03-10T20:35:16.460Z,93582.48
2023-03-10T20:37:43.366Z,93582.23
2023-03-10T20:40:13.076Z,93575.95
2023-03-10T20:42:40.630Z,93576.28
2023-03-10T20:45:08.915Z,93575.46
2023-03-10T20:47:36.059Z,93571.91
2023-03-10T20:50:08.033Z,93565.94
2023-03-10T20:52:37.023Z,93558.20
2023-03-10T20:55:06.618Z,93553.26
2023-03-10T20:57:33.993Z,93548.86
2023-03-10T21:00:00.983Z,93545.77
2023-03-10T21:02:27.664Z,93537.55
2023-03-10T21:04:54.748Z,93534.02
2023-03-10T21:07:21.668Z,93528.98
2023-03-10T21:09:48.420Z,93530.70
2023-03-10T21:12:17.965Z,93525.82
2023-03-10T21:14:45.281Z,93526.85
2023-03-10T21:17:12.540Z,93525.30
2023-03-10T21:19:39.381Z,93522.15
2023-03-10T21:22:06.330Z,93517.55
2023-03-10T21:24:33.896Z,93511.36
2023-03-10T21:27:00.737Z,93504.83
2023-03-10T21:29:27.491Z,93502.88
2023-03-10T21:31:54.543Z,93506.98
2023-03-10T21:34:21.469Z,93503.89
2023-03-10T21:36:48.315Z,93506.73
2023-03-10T21:39:15.008Z,93509.48
2023-03-10T21:41:42.218Z,93508.56
2023-03-10T21:44:10.293Z,93508.69
2023-03-10T21:46:37.148Z,93513.42
2023-03-10T21:49:04.390Z,93510.69
2023-03-10T21:51:34.121Z,93507.70
2023-03-10T21:54:02.713Z,93506.03
2023-03-10T21:56:29.874Z,93506.33
2023-03-10T21:58:57.194Z,93509.47
2023-03-10T22:01:25.405Z,93508.33
2023-03-10T22:03:53.001Z,93506.87
2023-03-10T22:06:20.247Z,93503.30
2023-03-10T22:08:47.765Z,93499.46
2023-03-10T22:11:15.204Z,93500.72
2023-03-10T22:13:42.766Z,93494.70
2023-03-10T22:16:14.639Z,93490.56
2023-03-10T22:18:42.093Z,93490.42
2023-03-10T22:21:08.841Z,93489.30
2023-03-10T22:23:35.983Z,93485.08
2023-03-10T22:26:02.830Z,93482.08
2023-03-10T22:28:29.670Z,93483.27
2023-03-10T22:30:57.675Z,93484.30
2023-03-10T22:33:25.200Z,93484.70
2023-03-10T22:35:52.517Z,93480.85
2023-03-10T22:38:19.956Z,93476.44
2023-03-10T22:40:47.167Z,93476.58
2023-03-10T22:43:15.041Z,93477.91
2023-03-10T22:45:42.022Z,93481.38
2023-03-10T22:48:08.851Z,93480.61
2023-03-10T22:50:39.246Z,93477.63
2023-03-10T22:53:11.733Z,93474.58
2023-03-10T22:55:38.976Z,93473.23
2023-03-10T22:58:07.090Z,93476.49
2023-03-10T23:00:34.632Z,93476.58
2023-03-10T23:03:04.171Z,93474.34
2023-03-10T23:05:31.587Z,93476.83
2023-03-10T23:07:59.248Z,93471.16
2023-03-10T23:10:29.996Z,93466.77
2023-03-10T23:13:06.886Z,93463.99
2023-03-10T23:15:36.897Z,93460.11
2023-03-10T23:18:04.767Z,93453.09
2023-03-10T23:20:35.696Z,93449.27
2023-03-10T23:23:04.723Z,93445.27
2023-03-10T23:25:39.734Z,93445.80
2023-03-10T23:28:09.030Z,93441.75
2023-03-10T23:30:37.763Z,93441.73
2023-03-10T23:33:06.933Z,93437.83
2023-03-10T23:35:35.018Z,93432.70
2023-03-10T23:38:04.464Z,93430.79
2023-03-10T23:40:33.177Z,93426.65
2023-03-10T23:43:01.785Z,93430.02
2023-03-10T23:45:30.094Z,93429.29
2023-03-10T23:47:59.552Z,93432.45
2023-03-10T23:50:31.944Z,93426.27
2023-03-10T23:52:59.582Z,93424.65
2023-03-10T23:55:32.689Z,93427.94
2023-03-10T23:57:59.943Z,93425.80
